sensor_id;sensor_type;location;lat;lon;timestamp;temperature;humidity
63317;DHT22;49822;41.468;13.560;2023-01-15T00:00:06;6.00;81.10
63317;DHT22;49822;41.468;13.560;2023-01-15T00:02:35;5.60;80.10
63317;DHT22;49822;41.468;13.560;2023-01-15T00:05:04;5.30;83.90
63317;DHT22;49822;41.468;13.560;2023-01-15T00:07:32;5.50;85.60
63317;DHT22;49822;41.468;13.560;2023-01-15T00:09:59;5.60;85.70
63317;DHT22;49822;41.468;13.560;2023-01-15T00:12:27;5.90;85.10
63317;DHT22;49822;41.468;13.560;2023-01-15T00:14:55;5.80;81.20
63317;DHT22;49822;41.468;13.560;2023-01-15T00:17:26;5.00;82.00
63317;DHT22;49822;41.468;13.560;2023-01-15T00:19:54;4.70;85.70
63317;DHT22;49822;41.468;13.560;2023-01-15T00:22:22;4.90;87.70
63317;DHT22;49822;41.468;13.560;2023-01-15T00:24:49;5.20;88.20
63317;DHT22;49822;41.468;13.560;2023-01-15T00:27:36;5.50;87.10
63317;DHT22;49822;41.468;13.560;2023-01-15T00:30:13;5.60;84.60
63317;DHT22;49822;41.468;13.560;2023-01-15T00:32:44;5.60;84.20
63317;DHT22;49822;41.468;13.560;2023-01-15T00:35:22;5.80;83.70
63317;DHT22;49822;41.468;13.560;2023-01-15T00:37:50;5.90;82.90
63317;DHT22;49822;41.468;13.560;2023-01-15T00:40:19;5.90;80.20
63317;DHT22;49822;41.468;13.560;2023-01-15T00:42:47;5.70;81.30
63317;DHT22;49822;41.468;13.560;2023-01-15T00:45:22;5.80;81.80
63317;DHT22;49822;41.468;13.560;2023-01-15T00:47:53;5.80;81.60
63317;DHT22;49822;41.468;13.560;2023-01-15T00:50:20;5.90;81.90
63317;DHT22;49822;41.468;13.560;2023-01-15T00:52:47;6.00;81.30
63317;DHT22;49822;41.468;13.560;2023-01-15T00:55:16;5.90;79.00
63317;DHT22;49822;41.468;13.560;2023-01-15T00:57:43;5.20;82.70
63317;DHT22;49822;41.468;13.560;2023-01-15T01:00:11;5.30;84.50
63317;DHT22;49822;41.468;13.560;2023-01-15T01:02:40;5.30;85.00
63317;DHT22;49822;41.468;13.560;2023-01-15T01:05:08;5.30;84.10
63317;DHT22;49822;41.468;13.560;2023-01-15T01:07:35;5.30;84.20
63317;DHT22;49822;41.468;13.560;2023-01-15T01:10:04;5.50;84.90
63317;DHT22;49822;41.468;13.560;2023-01-15T01:12:31;5.70;84.90
63317;DHT22;49822;41.468;13.560;2023-01-15T01:15:00;5.80;84.40
63317;DHT22;49822;41.468;13.560;2023-01-15T01:17:28;5.50;81.00
63317;DHT22;49822;41.468;13.560;2023-01-15T01:19:55;5.30;83.30
63317;DHT22;49822;41.468;13.560;2023-01-15T01:22:23;5.30;81.40
63317;DHT22;49822;41.468;13.560;2023-01-15T01:24:52;5.10;83.90
63317;DHT22;49822;41.468;13.560;2023-01-15T01:27:21;5.00;81.90
63317;DHT22;49822;41.468;13.560;2023-01-15T01:29:49;4.90;83.60
63317;DHT22;49822;41.468;13.560;2023-01-15T01:32:16;4.90;84.00
63317;DHT22;49822;41.468;13.560;2023-01-15T01:34:45;4.90;85.00
63317;DHT22;49822;41.468;13.560;2023-01-15T01:37:13;5.00;83.80
63317;DHT22;49822;41.468;13.560;2023-01-15T01:39:41;5.00;83.60
63317;DHT22;49822;41.468;13.560;2023-01-15T01:42:14;4.70;83.20
63317;DHT22;49822;41.468;13.560;2023-01-15T01:47:14;4.50;81.50
63317;DHT22;49822;41.468;13.560;2023-01-15T01:50:06;4.10;84.90
63317;DHT22;49822;41.468;13.560;2023-01-15T01:52:56;3.90;86.30
63317;DHT22;49822;41.468;13.560;2023-01-15T01:55:26;4.20;88.20
63317;DHT22;49822;41.468;13.560;2023-01-15T01:57:57;4.50;88.30
63317;DHT22;49822;41.468;13.560;2023-01-15T02:00:30;4.70;87.90
63317;DHT22;49822;41.468;13.560;2023-01-15T02:03:04;4.90;87.30
63317;DHT22;49822;41.468;13.560;2023-01-15T02:05:38;4.60;84.20
63317;DHT22;49822;41.468;13.560;2023-01-15T02:08:06;4.10;85.00
63317;DHT22;49822;41.468;13.560;2023-01-15T02:10:34;4.20;87.40
63317;DHT22;49822;41.468;13.560;2023-01-15T02:27:31;5.00;85.50
63317;DHT22;49822;41.468;13.560;2023-01-15T02:30:12;5.10;83.90
63317;DHT22;49822;41.468;13.560;2023-01-15T02:33:03;5.20;82.90
63317;DHT22;49822;41.468;13.560;2023-01-15T02:35:51;5.10;82.10
63317;DHT22;49822;41.468;13.560;2023-01-15T02:38:23;5.10;82.20
63317;DHT22;49822;41.468;13.560;2023-01-15T02:40:56;5.00;81.40
63317;DHT22;49822;41.468;13.560;2023-01-15T02:43:28;4.80;82.00
63317;DHT22;49822;41.468;13.560;2023-01-15T02:46:00;4.80;84.10
63317;DHT22;49822;41.468;13.560;2023-01-15T02:48:32;4.70;84.10
63317;DHT22;49822;41.468;13.560;2023-01-15T02:51:10;4.30;81.20
63317;DHT22;49822;41.468;13.560;2023-01-15T02:53:41;4.10;84.00
63317;DHT22;49822;41.468;13.560;2023-01-15T02:56:14;4.20;85.10
63317;DHT22;49822;41.468;13.560;2023-01-15T02:58:50;4.30;84.90
63317;DHT22;49822;41.468;13.560;2023-01-15T03:01:28;4.50;85.40
63317;DHT22;49822;41.468;13.560;2023-01-15T03:04:09;4.50;85.10
63317;DHT22;49822;41.468;13.560;2023-01-15T03:06:50;4.50;85.30
63317;DHT22;49822;41.468;13.560;2023-01-15T03:09:19;4.70;86.20
63317;DHT22;49822;41.468;13.560;2023-01-15T03:12:03;4.70;85.90
63317;DHT22;49822;41.468;13.560;2023-01-15T03:14:43;4.70;84.90
63317;DHT22;49822;41.468;13.560;2023-01-15T03:17:44;4.70;82.70
63317;DHT22;49822;41.468;13.560;2023-01-15T03:20:23;4.70;83.20
63317;DHT22;49822;41.468;13.560;2023-01-15T03:22:58;4.70;83.00
63317;DHT22;49822;41.468;13.560;2023-01-15T03:25:31;4.70;82.60
63317;DHT22;49822;41.468;13.560;2023-01-15T03:28:07;4.90;82.20
63317;DHT22;49822;41.468;13.560;2023-01-15T03:30:37;5.00;81.10
63317;DHT22;49822;41.468;13.560;2023-01-15T03:33:07;4.90;80.60
63317;DHT22;49822;41.468;13.560;2023-01-15T03:38:44;4.60;81.20
63317;DHT22;49822;41.468;13.560;2023-01-15T03:41:54;4.10;82.10
63317;DHT22;49822;41.468;13.560;2023-01-15T03:44:28;3.70;84.00
63317;DHT22;49822;41.468;13.560;2023-01-15T03:47:06;3.60;86.20
63317;DHT22;49822;41.468;13.560;2023-01-15T03:49:45;3.70;87.30
63317;DHT22;49822;41.468;13.560;2023-01-15T03:52:50;3.90;87.40
63317;DHT22;49822;41.468;13.560;2023-01-15T03:55:37;4.20;86.70
63317;DHT22;49822;41.468;13.560;2023-01-15T04:00:52;4.50;84.10
63317;DHT22;49822;41.468;13.560;2023-01-15T04:03:25;4.50;83.10
63317;DHT22;49822;41.468;13.560;2023-01-15T04:05:58;4.50;82.80
63317;DHT22;49822;41.468;13.560;2023-01-15T04:08:32;4.50;82.40
63317;DHT22;49822;41.468;13.560;2023-01-15T04:11:02;4.40;79.90
63317;DHT22;49822;41.468;13.560;2023-01-15T04:13:32;4.20;79.20
63317;DHT22;49822;41.468;13.560;2023-01-15T04:16:01;3.90;78.90
63317;DHT22;49822;41.468;13.560;2023-01-15T04:18:31;3.90;81.60
63317;DHT22;49822;41.468;13.560;2023-01-15T04:20:58;4.00;82.90
63317;DHT22;49822;41.468;13.560;2023-01-15T04:23:27;4.20;83.00
63317;DHT22;49822;41.468;13.560;2023-01-15T04:25:56;3.90;80.20
63317;DHT22;49822;41.468;13.560;2023-01-15T04:28:23;3.50;81.90
63317;DHT22;49822;41.468;13.560;2023-01-15T04:30:56;3.00;85.10
63317;DHT22;49822;41.468;13.560;2023-01-15T04:33:24;3.00;88.40
63317;DHT22;49822;41.468;13.560;2023-01-15T04:35:53;3.20;89.40
63317;DHT22;49822;41.468;13.560;2023-01-15T04:38:20;3.40;90.00
63317;DHT22;49822;41.468;13.560;2023-01-15T04:40:48;3.60;89.50
63317;DHT22;49822;41.468;13.560;2023-01-15T04:43:34;3.70;88.90
63317;DHT22;49822;41.468;13.560;2023-01-15T04:46:22;3.90;87.30
63317;DHT22;49822;41.468;13.560;2023-01-15T04:48:49;4.00;86.20
63317;DHT22;49822;41.468;13.560;2023-01-15T04:51:17;4.00;85.30
63317;DHT22;49822;41.468;13.560;2023-01-15T04:53:44;4.10;84.40
63317;DHT22;49822;41.468;13.560;2023-01-15T04:56:12;3.70;82.10
63317;DHT22;49822;41.468;13.560;2023-01-15T04:58:39;3.70;84.00
63317;DHT22;49822;41.468;13.560;2023-01-15T05:01:12;3.50;84.00
63317;DHT22;49822;41.468;13.560;2023-01-15T05:03:43;3.40;85.90
63317;DHT22;49822;41.468;13.560;2023-01-15T05:06:12;3.50;86.80
63317;DHT22;49822;41.468;13.560;2023-01-15T05:08:41;3.40;86.40
63317;DHT22;49822;41.468;13.560;2023-01-15T05:11:08;3.50;87.20
63317;DHT22;49822;41.468;13.560;2023-01-15T05:13:36;3.60;87.30
63317;DHT22;49822;41.468;13.560;2023-01-15T05:16:12;3.80;86.60
63317;DHT22;49822;41.468;13.560;2023-01-15T05:18:42;3.10;84.80
63317;DHT22;49822;41.468;13.560;2023-01-15T05:21:31;3.10;87.00
63317;DHT22;49822;41.468;13.560;2023-01-15T05:24:00;3.10;88.20
63317;DHT22;49822;41.468;13.560;2023-01-15T05:26:32;3.20;88.90
63317;DHT22;49822;41.468;13.560;2023-01-15T05:29:00;3.30;88.80
63317;DHT22;49822;41.468;13.560;2023-01-15T05:31:29;3.50;88.90
63317;DHT22;49822;41.468;13.560;2023-01-15T05:33:57;3.60;87.70
63317;DHT22;49822;41.468;13.560;2023-01-15T05:36:27;3.60;85.90
63317;DHT22;49822;41.468;13.560;2023-01-15T05:38:55;3.60;84.50
63317;DHT22;49822;41.468;13.560;2023-01-15T05:41:26;3.50;82.10
63317;DHT22;49822;41.468;13.560;2023-01-15T05:44:16;3.30;83.60
63317;DHT22;49822;41.468;13.560;2023-01-15T05:46:45;3.40;83.10
63317;DHT22;49822;41.468;13.560;2023-01-15T05:49:16;3.10;81.20
63317;DHT22;49822;41.468;13.560;2023-01-15T05:51:44;2.90;80.60
63317;DHT22;49822;41.468;13.560;2023-01-15T05:54:14;1.90;84.10
63317;DHT22;49822;41.468;13.560;2023-01-15T05:56:43;2.10;87.10
63317;DHT22;49822;41.468;13.560;2023-01-15T05:59:12;2.20;86.50
63317;DHT22;49822;41.468;13.560;2023-01-15T06:01:41;2.50;87.40
63317;DHT22;49822;41.468;13.560;2023-01-15T06:04:09;2.70;88.60
63317;DHT22;49822;41.468;13.560;2023-01-15T06:06:37;2.90;89.40
63317;DHT22;49822;41.468;13.560;2023-01-15T06:09:05;3.00;89.10
63317;DHT22;49822;41.468;13.560;2023-01-15T06:11:34;3.10;88.20
63317;DHT22;49822;41.468;13.560;2023-01-15T06:14:02;3.20;86.60
63317;DHT22;49822;41.468;13.560;2023-01-15T06:16:30;3.30;86.10
63317;DHT22;49822;41.468;13.560;2023-01-15T06:19:00;3.50;85.40
63317;DHT22;49822;41.468;13.560;2023-01-15T06:21:32;3.60;84.20
63317;DHT22;49822;41.468;13.560;2023-01-15T06:24:00;3.50;84.50
63317;DHT22;49822;41.468;13.560;2023-01-15T06:26:29;3.60;84.30
63317;DHT22;49822;41.468;13.560;2023-01-15T06:28:57;3.50;84.70
63317;DHT22;49822;41.468;13.560;2023-01-15T06:31:26;3.50;85.00
63317;DHT22;49822;41.468;13.560;2023-01-15T06:33:54;3.50;85.10
63317;DHT22;49822;41.468;13.560;2023-01-15T06:36:26;3.50;85.60
63317;DHT22;49822;41.468;13.560;2023-01-15T06:38:55;3.60;85.40
63317;DHT22;49822;41.468;13.560;2023-01-15T06:41:25;3.60;85.70
63317;DHT22;49822;41.468;13.560;2023-01-15T06:44:15;3.50;83.90
63317;DHT22;49822;41.468;13.560;2023-01-15T06:47:13;3.00;84.70
63317;DHT22;49822;41.468;13.560;2023-01-15T06:49:58;3.10;86.20
63317;DHT22;49822;41.468;13.560;2023-01-15T06:52:27;3.50;86.60
63317;DHT22;49822;41.468;13.560;2023-01-15T06:54:56;3.70;86.60
63317;DHT22;49822;41.468;13.560;2023-01-15T06:57:23;3.90;85.90
63317;DHT22;49822;41.468;13.560;2023-01-15T06:59:52;4.00;85.10
63317;DHT22;49822;41.468;13.560;2023-01-15T07:02:19;4.20;85.10
63317;DHT22;49822;41.468;13.560;2023-01-15T07:04:49;4.20;84.40
63317;DHT22;49822;41.468;13.560;2023-01-15T07:07:18;4.10;84.40
63317;DHT22;49822;41.468;13.560;2023-01-15T07:09:46;4.00;84.00
63317;DHT22;49822;41.468;13.560;2023-01-15T07:12:14;3.90;84.70
63317;DHT22;49822;41.468;13.560;2023-01-15T07:14:42;3.90;84.50
63317;DHT22;49822;41.468;13.560;2023-01-15T07:17:11;3.90;83.20
63317;DHT22;49822;41.468;13.560;2023-01-15T07:19:39;3.70;84.00
63317;DHT22;49822;41.468;13.560;2023-01-15T07:22:06;3.90;84.50
63317;DHT22;49822;41.468;13.560;2023-01-15T07:24:41;4.10;84.10
63317;DHT22;49822;41.468;13.560;2023-01-15T07:27:08;4.00;82.90
63317;DHT22;49822;41.468;13.560;2023-01-15T07:29:36;3.80;84.30
63317;DHT22;49822;41.468;13.560;2023-01-15T07:32:03;3.70;84.30
63317;DHT22;49822;41.468;13.560;2023-01-15T07:34:32;3.90;85.50
63317;DHT22;49822;41.468;13.560;2023-01-15T07:36:59;4.10;85.30
63317;DHT22;49822;41.468;13.560;2023-01-15T07:39:36;4.30;85.50
63317;DHT22;49822;41.468;13.560;2023-01-15T07:42:04;4.50;85.40
63317;DHT22;49822;41.468;13.560;2023-01-15T07:44:50;4.70;85.10
63317;DHT22;49822;41.468;13.560;2023-01-15T07:47:37;5.00;84.40
63317;DHT22;49822;41.468;13.560;2023-01-15T07:50:24;5.20;83.30
63317;DHT22;49822;41.468;13.560;2023-01-15T07:52:52;5.20;82.60
63317;DHT22;49822;41.468;13.560;2023-01-15T07:55:21;5.00;83.30
63317;DHT22;49822;41.468;13.560;2023-01-15T07:57:49;5.00;83.50
63317;DHT22;49822;41.468;13.560;2023-01-15T08:00:22;5.10;84.00
63317;DHT22;49822;41.468;13.560;2023-01-15T08:02:59;5.30;84.00
63317;DHT22;49822;41.468;13.560;2023-01-15T08:05:27;5.30;83.90
63317;DHT22;49822;41.468;13.560;2023-01-15T08:07:56;5.20;84.00
63317;DHT22;49822;41.468;13.560;2023-01-15T08:10:24;5.30;84.10
63317;DHT22;49822;41.468;13.560;2023-01-15T08:12:52;5.50;84.30
63317;DHT22;49822;41.468;13.560;2023-01-15T08:15:41;6.00;83.40
63317;DHT22;49822;41.468;13.560;2023-01-15T08:18:10;6.30;82.20
63317;DHT22;49822;41.468;13.560;2023-01-15T08:20:38;6.60;80.30
63317;DHT22;49822;41.468;13.560;2023-01-15T08:23:08;6.80;80.70
63317;DHT22;49822;41.468;13.560;2023-01-15T08:25:36;6.90;80.00
63317;DHT22;49822;41.468;13.560;2023-01-15T08:28:05;7.10;79.40
63317;DHT22;49822;41.468;13.560;2023-01-15T08:30:43;7.20;79.20
63317;DHT22;49822;41.468;13.560;2023-01-15T08:33:12;7.30;78.50
63317;DHT22;49822;41.468;13.560;2023-01-15T08:35:39;7.50;77.60
63317;DHT22;49822;41.468;13.560;2023-01-15T08:38:08;7.60;75.70
63317;DHT22;49822;41.468;13.560;2023-01-15T08:40:40;7.40;74.20
63317;DHT22;49822;41.468;13.560;2023-01-15T08:43:26;7.20;77.10
63317;DHT22;49822;41.468;13.560;2023-01-15T08:45:56;7.00;77.50
63317;DHT22;49822;41.468;13.560;2023-01-15T08:48:27;7.20;78.20
63317;DHT22;49822;41.468;13.560;2023-01-15T08:50:57;7.50;79.00
63317;DHT22;49822;41.468;13.560;2023-01-15T08:53:25;7.80;77.30
63317;DHT22;49822;41.468;13.560;2023-01-15T08:55:58;8.10;77.10
63317;DHT22;49822;41.468;13.560;2023-01-15T08:58:32;8.20;73.80
63317;DHT22;49822;41.468;13.560;2023-01-15T09:01:07;8.10;74.30
63317;DHT22;49822;41.468;13.560;2023-01-15T09:03:38;8.20;74.50
63317;DHT22;49822;41.468;13.560;2023-01-15T09:06:07;8.30;74.20
63317;DHT22;49822;41.468;13.560;2023-01-15T09:08:37;8.10;74.50
63317;DHT22;49822;41.468;13.560;2023-01-15T09:11:07;7.90;76.20
63317;DHT22;49822;41.468;13.560;2023-01-15T09:13:36;7.80;75.20
63317;DHT22;49822;41.468;13.560;2023-01-15T09:16:06;7.70;76.70
63317;DHT22;49822;41.468;13.560;2023-01-15T09:18:37;7.60;76.50
63317;DHT22;49822;41.468;13.560;2023-01-15T09:21:05;7.80;77.20
63317;DHT22;49822;41.468;13.560;2023-01-15T09:23:37;7.90;77.90
63317;DHT22;49822;41.468;13.560;2023-01-15T09:26:06;8.10;76.70
63317;DHT22;49822;41.468;13.560;2023-01-15T09:28:35;8.20;75.80
63317;DHT22;49822;41.468;13.560;2023-01-15T09:31:05;8.30;75.10
63317;DHT22;49822;41.468;13.560;2023-01-15T09:33:44;8.30;75.50
63317;DHT22;49822;41.468;13.560;2023-01-15T09:38:51;8.70;74.10
63317;DHT22;49822;41.468;13.560;2023-01-15T09:41:20;8.80;73.60
63317;DHT22;49822;41.468;13.560;2023-01-15T09:47:12;8.90;73.80
63317;DHT22;49822;41.468;13.560;2023-01-15T09:55:45;10.40;68.40
63317;DHT22;49822;41.468;13.560;2023-01-15T09:58:17;10.40;67.90
63317;DHT22;49822;41.468;13.560;2023-01-15T10:00:51;11.00;66.90
63317;DHT22;49822;41.468;13.560;2023-01-15T10:03:33;12.00;63.40
63317;DHT22;49822;41.468;13.560;2023-01-15T10:06:21;12.80;59.80
63317;DHT22;49822;41.468;13.560;2023-01-15T10:12:15;11.50;61.20
63317;DHT22;49822;41.468;13.560;2023-01-15T10:17:40;11.20;62.20
63317;DHT22;49822;41.468;13.560;2023-01-15T10:23:36;12.50;61.00
63317;DHT22;49822;41.468;13.560;2023-01-15T10:26:35;14.00;55.50
63317;DHT22;49822;41.468;13.560;2023-01-15T10:29:32;13.50;55.10
63317;DHT22;49822;41.468;13.560;2023-01-15T10:32:22;12.90;56.10
63317;DHT22;49822;41.468;13.560;2023-01-15T10:37:59;13.30;57.40
63317;DHT22;49822;41.468;13.560;2023-01-15T10:43:21;13.30;55.70
63317;DHT22;49822;41.468;13.560;2023-01-15T10:46:02;12.70;57.10
63317;DHT22;49822;41.468;13.560;2023-01-15T10:51:21;11.50;62.60
63317;DHT22;49822;41.468;13.560;2023-01-15T10:54:30;12.30;61.70
63317;DHT22;49822;41.468;13.560;2023-01-15T10:57:18;12.90;58.40
63317;DHT22;49822;41.468;13.560;2023-01-15T10:59:58;12.50;61.00
63317;DHT22;49822;41.468;13.560;2023-01-15T11:02:42;13.20;61.00
63317;DHT22;49822;41.468;13.560;2023-01-15T11:05:16;15.20;54.80
63317;DHT22;49822;41.468;13.560;2023-01-15T11:07:49;15.80;52.00
63317;DHT22;49822;41.468;13.560;2023-01-15T11:10:38;16.00;51.50
63317;DHT22;49822;41.468;13.560;2023-01-15T11:13:20;14.90;53.20
63317;DHT22;49822;41.468;13.560;2023-01-15T11:16:19;14.40;56.20
63317;DHT22;49822;41.468;13.560;2023-01-15T11:19:38;14.60;57.20
63317;DHT22;49822;41.468;13.560;2023-01-15T11:22:16;16.40;52.20
63317;DHT22;49822;41.468;13.560;2023-01-15T11:24:53;16.90;50.00
63317;DHT22;49822;41.468;13.560;2023-01-15T11:27:32;16.30;50.40
63317;DHT22;49822;41.468;13.560;2023-01-15T11:30:02;15.40;53.10
63317;DHT22;49822;41.468;13.560;2023-01-15T11:32:36;15.00;54.20
63317;DHT22;49822;41.468;13.560;2023-01-15T11:35:16;14.70;54.80
63317;DHT22;49822;41.468;13.560;2023-01-15T11:37:45;14.20;56.50
63317;DHT22;49822;41.468;13.560;2023-01-15T11:40:16;13.70;56.90
63317;DHT22;49822;41.468;13.560;2023-01-15T11:42:46;13.00;58.70
63317;DHT22;49822;41.468;13.560;2023-01-15T11:45:55;12.50;60.10
63317;DHT22;49822;41.468;13.560;2023-01-15T11:48:46;12.50;61.60
63317;DHT22;49822;41.468;13.560;2023-01-15T11:51:39;12.50;61.50
63317;DHT22;49822;41.468;13.560;2023-01-15T11:54:12;12.40;62.60
63317;DHT22;49822;41.468;13.560;2023-01-15T11:56:43;12.30;63.00
63317;DHT22;49822;41.468;13.560;2023-01-15T11:59:18;12.20;62.00
63317;DHT22;49822;41.468;13.560;2023-01-15T12:01:59;12.20;62.40
63317;DHT22;49822;41.468;13.560;2023-01-15T12:04:52;12.20;62.40
63317;DHT22;49822;41.468;13.560;2023-01-15T12:07:24;12.10;62.20
63317;DHT22;49822;41.468;13.560;2023-01-15T12:10:02;12.10;61.80
63317;DHT22;49822;41.468;13.560;2023-01-15T12:12:56;12.20;61.60
63317;DHT22;49822;41.468;13.560;2023-01-15T12:16:01;12.30;60.70
63317;DHT22;49822;41.468;13.560;2023-01-15T12:19:04;12.30;60.90
63317;DHT22;49822;41.468;13.560;2023-01-15T12:29:37;11.70;61.70
63317;DHT22;49822;41.468;13.560;2023-01-15T12:32:12;11.50;62.80
63317;DHT22;49822;41.468;13.560;2023-01-15T12:34:50;11.30;63.50
63317;DHT22;49822;41.468;13.560;2023-01-15T12:37:27;11.20;63.70
63317;DHT22;49822;41.468;13.560;2023-01-15T12:42:45;11.10;65.00
63317;DHT22;49822;41.468;13.560;2023-01-15T12:45:43;11.10;65.10
63317;DHT22;49822;41.468;13.560;2023-01-15T12:48:27;11.10;64.60
63317;DHT22;49822;41.468;13.560;2023-01-15T12:51:00;11.20;65.50
63317;DHT22;49822;41.468;13.560;2023-01-15T12:53:38;11.40;64.00
63317;DHT22;49822;41.468;13.560;2023-01-15T12:59:05;11.50;63.20
63317;DHT22;49822;41.468;13.560;2023-01-15T13:04:17;11.70;62.60
63317;DHT22;49822;41.468;13.560;2023-01-15T13:07:15;11.60;63.00
63317;DHT22;49822;41.468;13.560;2023-01-15T13:12:25;11.50;63.80
63317;DHT22;49822;41.468;13.560;2023-01-15T13:14:54;11.60;64.50
63317;DHT22;49822;41.468;13.560;2023-01-15T13:20:27;11.70;62.50
63317;DHT22;49822;41.468;13.560;2023-01-15T13:34:44;11.70;65.00
63317;DHT22;49822;41.468;13.560;2023-01-15T13:37:23;11.70;64.60
63317;DHT22;49822;41.468;13.560;2023-01-15T13:39:57;11.70;65.00
63317;DHT22;49822;41.468;13.560;2023-01-15T13:42:30;11.70;63.70
63317;DHT22;49822;41.468;13.560;2023-01-15T13:48:05;11.70;64.30
63317;DHT22;49822;41.468;13.560;2023-01-15T13:50:39;11.70;64.50
63317;DHT22;49822;41.468;13.560;2023-01-15T13:53:43;11.70;64.10
63317;DHT22;49822;41.468;13.560;2023-01-15T13:56:13;11.70;65.00
63317;DHT22;49822;41.468;13.560;2023-01-15T13:58:57;11.50;65.70
63317;DHT22;49822;41.468;13.560;2023-01-15T14:04:13;11.50;66.60
63317;DHT22;49822;41.468;13.560;2023-01-15T14:06:50;11.40;66.70
63317;DHT22;49822;41.468;13.560;2023-01-15T14:15:12;11.00;67.00
63317;DHT22;49822;41.468;13.560;2023-01-15T14:20:52;10.80;67.30
63317;DHT22;49822;41.468;13.560;2023-01-15T14:26:33;10.80;67.60
63317;DHT22;49822;41.468;13.560;2023-01-15T14:32:41;10.90;68.90
63317;DHT22;49822;41.468;13.560;2023-01-15T14:35:23;10.70;68.70
63317;DHT22;49822;41.468;13.560;2023-01-15T14:38:12;10.80;69.10
63317;DHT22;49822;41.468;13.560;2023-01-15T14:41:09;10.70;69.40
63317;DHT22;49822;41.468;13.560;2023-01-15T14:43:47;10.60;69.30
63317;DHT22;49822;41.468;13.560;2023-01-15T14:46:26;10.50;69.60
63317;DHT22;49822;41.468;13.560;2023-01-15T14:48:56;10.50;69.80
63317;DHT22;49822;41.468;13.560;2023-01-15T14:51:45;10.60;69.90
63317;DHT22;49822;41.468;13.560;2023-01-15T14:54:17;10.60;69.50
63317;DHT22;49822;41.468;13.560;2023-01-15T14:56:52;10.70;69.90
63317;DHT22;49822;41.468;13.560;2023-01-15T14:59:24;10.70;69.30
63317;DHT22;49822;41.468;13.560;2023-01-15T15:01:57;10.60;69.40
63317;DHT22;49822;41.468;13.560;2023-01-15T15:04:51;10.60;69.60
63317;DHT22;49822;41.468;13.560;2023-01-15T15:07:21;10.60;70.00
63317;DHT22;49822;41.468;13.560;2023-01-15T15:09:55;10.60;69.60
63317;DHT22;49822;41.468;13.560;2023-01-15T15:15:11;10.50;69.20
63317;DHT22;49822;41.468;13.560;2023-01-15T15:17:58;10.30;68.30
63317;DHT22;49822;41.468;13.560;2023-01-15T15:20:49;10.00;68.70
63317;DHT22;49822;41.468;13.560;2023-01-15T15:23:44;10.00;70.20
63317;DHT22;49822;41.468;13.560;2023-01-15T15:26:29;10.00;69.80
63317;DHT22;49822;41.468;13.560;2023-01-15T15:29:04;10.10;70.20
63317;DHT22;49822;41.468;13.560;2023-01-15T15:36:49;10.10;70.00
63317;DHT22;49822;41.468;13.560;2023-01-15T15:40:00;10.00;69.90
63317;DHT22;49822;41.468;13.560;2023-01-15T15:42:36;9.80;71.40
63317;DHT22;49822;41.468;13.560;2023-01-15T15:45:25;9.80;71.60
63317;DHT22;49822;41.468;13.560;2023-01-15T15:48:30;9.80;71.10
63317;DHT22;49822;41.468;13.560;2023-01-15T15:51:32;9.60;71.60
63317;DHT22;49822;41.468;13.560;2023-01-15T15:54:18;9.70;72.60
63317;DHT22;49822;41.468;13.560;2023-01-15T15:59:36;9.80;72.50
63317;DHT22;49822;41.468;13.560;2023-01-15T16:02:21;9.80;72.50
63317;DHT22;49822;41.468;13.560;2023-01-15T16:04:53;9.80;71.70
63317;DHT22;49822;41.468;13.560;2023-01-15T16:07:24;9.90;72.10
63317;DHT22;49822;41.468;13.560;2023-01-15T16:09:56;9.90;72.60
63317;DHT22;49822;41.468;13.560;2023-01-15T16:12:30;10.00;72.60
63317;DHT22;49822;41.468;13.560;2023-01-15T16:15:02;10.00;72.50
63317;DHT22;49822;41.468;13.560;2023-01-15T16:17:41;10.00;72.40
63317;DHT22;49822;41.468;13.560;2023-01-15T16:20:17;9.80;72.60
63317;DHT22;49822;41.468;13.560;2023-01-15T16:23:00;9.50;74.80
63317;DHT22;49822;41.468;13.560;2023-01-15T16:25:33;9.40;76.10
63317;DHT22;49822;41.468;13.560;2023-01-15T16:28:37;9.40;75.60
63317;DHT22;49822;41.468;13.560;2023-01-15T16:31:14;9.00;76.70
63317;DHT22;49822;41.468;13.560;2023-01-15T16:33:44;9.00;76.30
63317;DHT22;49822;41.468;13.560;2023-01-15T16:36:13;9.20;76.40
63317;DHT22;49822;41.468;13.560;2023-01-15T16:38:41;9.30;76.80
63317;DHT22;49822;41.468;13.560;2023-01-15T16:41:27;9.40;77.60
63317;DHT22;49822;41.468;13.560;2023-01-15T16:44:02;9.40;77.80
63317;DHT22;49822;41.468;13.560;2023-01-15T16:46:32;9.40;77.80
63317;DHT22;49822;41.468;13.560;2023-01-15T16:49:18;9.20;77.50
63317;DHT22;49822;41.468;13.560;2023-01-15T16:51:48;9.20;78.20
63317;DHT22;49822;41.468;13.560;2023-01-15T16:57:04;8.90;79.50
63317;DHT22;49822;41.468;13.560;2023-01-15T16:59:56;9.00;79.60
63317;DHT22;49822;41.468;13.560;2023-01-15T17:02:30;9.20;79.20
63317;DHT22;49822;41.468;13.560;2023-01-15T17:05:04;9.20;79.20
63317;DHT22;49822;41.468;13.560;2023-01-15T17:07:41;9.20;78.90
63317;DHT22;49822;41.468;13.560;2023-01-15T17:10:26;9.00;80.00
63317;DHT22;49822;41.468;13.560;2023-01-15T17:12:54;9.20;80.00
63317;DHT22;49822;41.468;13.560;2023-01-15T17:17:54;9.00;80.50
63317;DHT22;49822;41.468;13.560;2023-01-15T17:20:23;9.20;80.10
63317;DHT22;49822;41.468;13.560;2023-01-15T17:22:54;9.20;79.90
63317;DHT22;49822;41.468;13.560;2023-01-15T17:25:23;9.20;80.70
63317;DHT22;49822;41.468;13.560;2023-01-15T17:27:53;9.20;80.90
63317;DHT22;49822;41.468;13.560;2023-01-15T17:30:22;9.10;80.40
63317;DHT22;49822;41.468;13.560;2023-01-15T17:33:02;8.90;81.60
63317;DHT22;49822;41.468;13.560;2023-01-15T17:35:33;9.00;81.60
63317;DHT22;49822;41.468;13.560;2023-01-15T17:38:01;9.00;81.10
63317;DHT22;49822;41.468;13.560;2023-01-15T17:40:29;8.70;81.90
63317;DHT22;49822;41.468;13.560;2023-01-15T17:42:59;8.60;82.90
63317;DHT22;49822;41.468;13.560;2023-01-15T17:45:29;8.60;83.30
63317;DHT22;49822;41.468;13.560;2023-01-15T17:47:59;8.70;82.80
63317;DHT22;49822;41.468;13.560;2023-01-15T17:50:28;8.80;83.00
63317;DHT22;49822;41.468;13.560;2023-01-15T17:52:56;8.90;82.40
63317;DHT22;49822;41.468;13.560;2023-01-15T17:55:23;8.80;81.70
63317;DHT22;49822;41.468;13.560;2023-01-15T17:58:12;8.80;82.10
63317;DHT22;49822;41.468;13.560;2023-01-15T18:01:00;8.70;82.00
63317;DHT22;49822;41.468;13.560;2023-01-15T18:03:50;8.70;82.50
63317;DHT22;49822;41.468;13.560;2023-01-15T18:06:37;8.60;82.80
63317;DHT22;49822;41.468;13.560;2023-01-15T18:09:07;8.70;82.40
63317;DHT22;49822;41.468;13.560;2023-01-15T18:11:35;8.80;82.40
63317;DHT22;49822;41.468;13.560;2023-01-15T18:14:02;8.80;82.30
63317;DHT22;49822;41.468;13.560;2023-01-15T18:16:30;8.90;81.80
63317;DHT22;49822;41.468;13.560;2023-01-15T18:18:58;9.00;81.60